Main page
METAR-TAF:

METAR-TAF

Airports :

Hof, Germany

latitude: 50-19N, longitude: 011-53E, elevation: 567 m

Current weather observation

The report was made 11 hours and 5 minutes ago, at 15:50 UTC
Wind 3 kt from variable directions
Temperature 24°C
Humidity 31%
Pressure 1022 hPa
Visibility 10 km or more
no clouds below 1500 m and no cumulonimbus

METAR: EDQM 271550Z VRB03KT CAVOK 24/06 Q1022

Time: 04:55 (02:55 UTC)

Forecast

The report was made 12 hours and 55 minutes ago, at 14:00 UTC
Forecast valid from 27 at 15 UTC to 27 at 24 UTC
Wind 5 kt from the East
Visibility 10 km or more
no clouds below 1500 m and no cumulonimbus

TAF: EDQM 271400Z 2715/2724 09005KT CAVOK

Weather observations and forecasts of more than 4000 airports (METAR and TAF reports).

The available stations are represented by yellow and red dots on the map.

Hover mouse over dot to see the name of the station.

Then click to see weather observations and forecasts.

To change the map : click on the green buttons with a black cross to zoom in, on the green button with a dash to zoom out, or on the green arrows for adjacent maps.


METAR-TAF: